Terminal Aerodrome Forecast
Issued by NWS Pueblo, CO

Home | Current Version | Previous Version | Text Only | Print | Product List | Glossary On
Versions: 1 2 3 4 5 6 7 8 9 10 11 12 13 14 15 16 17 18 19 20 21 22 23 24 25 26 27 28 29 30 31 32 33 34 35
000
FTUS45 KPUB 220526
TAFALS
TAF
KALS 220526Z 2206/2306 VRB06KT P6SM SCT050 BKN070
     FM221800 34010KT P6SM SCT040 BKN060
     FM222000 36012G24KT P6SM VCSH SCT030 BKN050
     FM230200 36015KT P6SM VCSH SCT025 BKN040=

USA.gov is the U.S. government's official web portal to all federal, state and local government web resources and services.